Terminal Aerodrome Forecast
Issued by NWS

Home | Current Version | Previous Version | Text Only | Print | Product List | Glossary On
Versions: 1 2 3 4 5 6 7 8 9 10 11 12 13 14 15 16 17 18 19 20 21 22 23 24
000
FTUS43 KABR 270521
TAFPIR
TAF
KPIR 270521Z 2706/2806 VRB06KT P6SM SKC
     FM271700 16012KT P6SM BKN250
      TEMPO 2721/2801 -SHRA OVC100
     FM280100 15011KT P6SM -SHRA VCTS SCT050CB OVC100=

USA.gov is the U.S. government's official web portal to all federal, state and local government web resources and services.